• Join FlightAware (Why Join?)
  • Login
  • US Flag 
06:25PM EST


 

Airport Tracker/Info


-or-


 

Live Flight TrackerFlight Track Log ✈ AMX402 ✈ 04-May-2013 ✈ MMMX / MEX - KJFK

Flight Track Log - Related Links

Times and Time Zones

All times are in EDT time to prevent confusion due to time zone crossing. See the AMX402 flight status page for this flight to view local times or setup timezone preferences in your user account.

Time Position Orientation Groundspeed Altitude Reporting Facility
EDT Latitude Longitude Course Direction KTS MPH feet Rate Location/Type
12:03PM 24.2950 -96.4730 32° Northeast 485 558 35,000  Level FlightAware
12:03PM 24.3720 -96.4190 33° Northeast 484 557 35,000  Level FlightAware
12:04PM 24.4580 -96.3590 32° Northeast 483 556 35,000  Level FlightAware
12:05PM 24.5340 -96.3050 33° Northeast 482 555 35,000  Level FlightAware
12:05PM 24.6180 -96.2450 33° Northeast 483 556 35,000  Level FlightAware
12:06PM 24.6930 -96.1920 33° Northeast 482 555 35,000  Level FlightAware
12:07PM 24.7640 -96.1410 33° Northeast 482 555 35,000  Level FlightAware
12:08PM 24.8520 -96.0780 33° Northeast 482 555 35,000  Level FlightAware
12:08PM 24.9270 -96.0250 33° Northeast 481 554 35,000  Level FlightAware
12:09PM 25.0090 -95.9660 33° Northeast 482 555 35,000  Level FlightAware
12:10PM 25.0810 -95.9150 33° Northeast 482 555 35,000  Level FlightAware
12:10PM 25.1440 -95.8690 33° Northeast 482 555 35,000  Level FlightAware
12:11PM 25.2450 -95.7970 33° Northeast 479 551 35,000  Level FlightAware
12:12PM 25.3200 -95.7430 33° Northeast 478 550 35,000  Level FlightAware
12:12PM 25.4020 -95.6840 33° Northeast 475 547 35,000  Level FlightAware
12:13PM 25.4750 -95.6320 33° Northeast 474 545 35,000  Level FlightAware
12:14PM 25.5470 -95.5800 33° Northeast 472 543 35,000  Level FlightAware
12:15PM 25.6310 -95.5160 34° Northeast 476 548 35,000  Level FlightAware
12:15PM 25.6960 -95.4480 43° Northeast 484 557 35,000  Level FlightAware
12:16PM 25.7660 -95.3710 45° Northeast 482 555 35,000  Level FlightAware
12:17PM 25.8180 -95.3130 45° Northeast 480 552 35,000  Level FlightAware
12:17PM 25.8920 -95.2310 45° Northeast 480 552 35,000  Level FlightAware
12:18PM 25.9420 -95.1750 45° Northeast 481 554 35,000  Level FlightAware
12:19PM 26.0060 -95.1010 46° Northeast 481 554 35,000  Level FlightAware
12:19PM 26.0590 -95.0410 45° Northeast 481 554 35,000  Level FlightAware
12:20PM 26.1250 -94.9650 46° Northeast 481 554 35,000  Level FlightAware
12:21PM 26.1770 -94.9040 46° Northeast 481 554 35,000  Level FlightAware
12:21PM 26.2663 -94.8142 42° Northeast 483 556 35,000  Level FlightAware ADS-B
12:22PM 26.3630 -94.7059 45° Northeast 484 557 35,000  Level FlightAware ADS-B
12:23PM 26.4122 -94.6506 45° Northeast 484 557 35,000  Level FlightAware ADS-B
12:23PM 26.4386 -94.6192 47° Northeast 486 559 35,000  Level FlightAware ADS-B
12:24PM 26.5031 -94.5312 51° Northeast 491 565 35,000  Level FlightAware ADS-B
12:25PM 26.5837 -94.4209 51° Northeast 491 565 35,000  Level FlightAware ADS-B
12:25PM 26.6337 -94.3524 51° Northeast 491 565 35,000  Level FlightAware ADS-B
12:26PM 26.6862 -94.2806 51° Northeast 492 566 35,000  Level FlightAware ADS-B
12:27PM 26.7527 -94.1893 51° Northeast 492 566 35,000  Level FlightAware ADS-B
12:27PM 26.8069 -94.1149 51° Northeast 493 567 35,000  Level FlightAware ADS-B
12:28PM 26.8517 -94.0533 51° Northeast 493 567 35,000  Level FlightAware ADS-B
12:28PM 26.9049 -93.9802 51° Northeast 493 567 35,000  Level FlightAware ADS-B
12:29PM 26.9675 -93.8937 51° Northeast 494 568 35,000  Level FlightAware ADS-B
12:30PM 27.0113 -93.8332 51° Northeast 493 567 35,000  Level FlightAware ADS-B
12:30PM 27.0551 -93.7726 51° Northeast 491 565 35,000  Level FlightAware ADS-B
12:31PM 27.1010 -93.7091 51° Northeast 491 565 35,000  Level FlightAware ADS-B
12:31PM 27.1451 -93.6481 51° Northeast 490 564 35,000  Level FlightAware ADS-B
12:33PM 27.3247 -93.3981 51° Northeast 491 565 35,000  Level FlightAware ADS-B
12:34PM 27.3956 -93.2990 51° Northeast 494 568 35,000  Level FlightAware ADS-B
12:35PM 27.4734 -93.1899 51° Northeast 497 572 35,000  Level FlightAware ADS-B
12:36PM 27.5516 -93.0798 51° Northeast 500 575 35,000  Level FlightAware ADS-B
12:37PM 27.6226 -92.9799 51° Northeast 500 575 35,000  Level FlightAware ADS-B
12:38PM 27.6719 -92.9075 51° Northeast 501 577 35,000  Level Houston Center
12:39PM 27.7586 -92.7856 51° Northeast 499 574 35,000  Level Houston Center
12:40PM 27.8447 -92.6633 51° Northeast 500 575 35,000  Level Houston Center
12:41PM 27.9483 -92.5178 51° Northeast 498 573 35,000  Level Houston Center
12:42PM 28.0311 -92.3975 52° Northeast 490 564 35,000  Level Houston Center
12:43PM 28.1161 -92.2767 51° Northeast 491 565 35,000  Level Houston Center
12:44PM 28.2008 -92.1564 51° Northeast 490 564 35,000  Level Houston Center
12:45PM 28.2844 -92.0350 52° Northeast 490 564 35,000  Level Houston Center
12:46PM 28.3694 -91.9128 52° Northeast 494 568 35,000  Level Houston Center
12:47PM 28.4714 -91.7664 52° Northeast 495 570 35,000  Level Houston Center
12:48PM 28.5561 -91.6414 52° Northeast 487 560 35,000  Level Houston Center
12:49PM 28.6406 -91.5175 52° Northeast 494 568 35,000  Level Houston Center
12:50PM 28.7231 -91.3958 52° Northeast 488 562 35,000  Level Houston Center
12:51PM 28.8058 -91.2756 52° Northeast 485 558 35,000  Level Houston Center
12:52PM 28.8889 -91.1544 52° Northeast 485 558 35,000  Level Houston Center
12:53PM 28.9714 -91.0336 52° Northeast 483 556 35,000  Level Houston Center
12:54PM 29.0706 -90.8858 52° Northeast 488 562 35,000  Level Houston Center
01:00PM 29.5350 -90.1950 52° Northeast 479 551 35,000  Level FlightAware
01:01PM 29.5990 -90.0980 53° Northeast 479 551 35,000  Level FlightAware
01:01PM 29.6530 -90.0160 53° Northeast 477 549 35,000  Level FlightAware
01:02PM 29.7120 -89.9270 53° Northeast 479 551 35,000  Level FlightAware
01:03PM 29.7640 -89.8470 53° Northeast 479 551 35,000  Level FlightAware
01:03PM 29.8260 -89.7530 53° Northeast 478 550 35,000  Level FlightAware
01:04PM 29.8800 -89.6720 52° Northeast 479 551 35,000  Level FlightAware
01:05PM 29.9300 -89.6010 51° Northeast 480 552 35,000  Level FlightAware
01:06PM 30.0100 -89.4900 50° Northeast 479 551 35,000  Level FlightAware
01:07PM 30.0870 -89.3850 50° Northeast 481 554 35,000  Level FlightAware
01:07PM 30.1450 -89.3050 50° Northeast 481 554 35,000  Level FlightAware
01:08PM 30.1940 -89.2380 50° Northeast 481 554 35,000  Level FlightAware
01:09PM 30.2420 -89.1710 50° Northeast 481 554 35,000  Level FlightAware
01:09PM 30.2910 -89.1030 50° Northeast 481 554 35,000  Level FlightAware
01:10PM 30.3520 -89.0200 50° Northeast 481 554 35,000  Level FlightAware
01:11PM 30.4000 -88.9520 51° Northeast 481 554 35,000  Level FlightAware
01:11PM 30.4490 -88.8850 50° Northeast 481 554 35,000  Level FlightAware
01:12PM 30.4980 -88.8180 50° Northeast 481 554 35,000  Level FlightAware
01:13PM 30.5460 -88.7510 50° Northeast 481 554 35,000  Level FlightAware
01:14PM 30.6070 -88.6660 50° Northeast 481 554 35,000  Level FlightAware
01:14PM 30.6560 -88.5990 50° Northeast 481 554 35,000  Level FlightAware
01:15PM 30.7040 -88.5320 50° Northeast 481 554 35,000  Level FlightAware
01:16PM 30.7530 -88.4640 50° Northeast 481 554 35,000  Level FlightAware
01:16PM 30.8020 -88.3970 50° Northeast 481 554 35,000  Level FlightAware
01:17PM 31.0181 -88.1981 50° Northeast 486 559 35,000  Level Houston Center
01:18PM 31.1225 -88.0969 40° Northeast 492 566 35,000  Level Houston Center
01:19PM 31.2253 -87.9931 41° Northeast 490 564 35,000  Level Houston Center
01:20PM 31.3211 -87.8961 41° Northeast 484 557 35,000  Level Houston Center
01:20PM 31.3858 -87.8333 40° Northeast 484 557 35,000  Level Atlanta Center
01:21PM 31.4850 -87.7303 42° Northeast 478 550 35,000  Level Atlanta Center
01:22PM 31.5861 -87.6247 42° Northeast 478 550 35,000  Level Atlanta Center
01:23PM 31.6608 -87.4886 57° Northeast 489 563 35,000  Level Atlanta Center
01:24PM 31.7336 -87.3500 58° Northeast 489 563 35,000  Level Atlanta Center
01:25PM 31.7953 -87.2203 61° Northeast 489 563 35,000  Level Atlanta Center
01:26PM 31.8697 -87.0833 57° Northeast 501 577 35,000  Level Atlanta Center
01:27PM 31.9422 -86.9392 59° Northeast 501 577 35,000  Level Atlanta Center
01:28PM 32.0164 -86.7944 59° Northeast 506 582 35,000  Level Atlanta Center
01:29PM 32.1011 -86.6428 57° Northeast 506 582 35,000  Level Atlanta Center
01:30PM 32.1731 -86.4975 60° Northeast 511 588 35,000  Level Atlanta Center
01:31PM 32.2406 -86.3497 62° Northeast 503 579 35,000  Level Atlanta Center
01:32PM 32.3097 -86.2186 58° Northeast 503 579 35,000  Level Atlanta Center
01:33PM 32.3789 -86.0778 60° Northeast 503 579 35,000  Level Atlanta Center
01:34PM 32.4500 -85.9342 60° Northeast 503 579 35,000  Level Atlanta Center
01:35PM 32.5339 -85.7733 58° Northeast 509 586 35,000  Level Atlanta Center
01:36PM 32.6025 -85.6292 61° Northeast 504 580 35,000  Level Atlanta Center
01:37PM 32.6733 -85.4850 60° Northeast 504 580 35,000  Level Atlanta Center
01:38PM 32.7436 -85.3453 59° Northeast 504 580 35,000  Level Atlanta Center
01:39PM 32.8139 -85.2006 60° Northeast 504 580 35,000  Level Atlanta Center
01:40PM 32.8800 -85.0653 60° Northeast 492 566 35,000 60 Level Atlanta Center
01:46PM 33.2880 -84.2290 60° Northeast 502 578 35,700 300 Climbing FlightAware
01:47PM 33.3350 -84.1280 61° Northeast 493 567 37,200 1,620 Climbing FlightAware
01:48PM 33.3880 -84.0180 60° Northeast 493 567 38,000 1,140 Climbing FlightAware
01:48PM 33.4406 -83.9068 60° Northeast 484 557 38,900 720 Climbing FlightAware ADS-B
01:49PM 33.4790 -83.8250 61° Northeast 491 565 39,000 60 Climbing FlightAware
01:50PM 33.5300 -83.7180 60° Northeast 486 559 39,000  Level FlightAware
01:50PM 33.5730 -83.6280 60° Northeast 488 562 39,000  Level FlightAware
01:51PM 33.6170 -83.5330 61° Northeast 489 563 39,000  Level FlightAware
01:52PM 33.6680 -83.4230 61° Northeast 486 559 39,000  Level FlightAware
01:53PM 33.7120 -83.3300 60° Northeast 487 560 39,000  Level FlightAware
01:53PM 33.7600 -83.2260 61° Northeast 489 563 39,000  Level FlightAware
01:54PM 33.8050 -83.1290 61° Northeast 491 565 39,000  Level FlightAware
01:55PM 33.8490 -83.0350 61° Northeast 491 565 39,000  Level FlightAware
01:55PM 33.8768 -82.9749 61° Northeast 488 562 39,000  Level FlightAware ADS-B
01:56PM 33.9187 -82.8840 61° Northeast 489 563 39,000  Level FlightAware ADS-B
01:56PM 33.9518 -82.8122 61° Northeast 490 564 39,000  Level FlightAware ADS-B
01:57PM 33.9900 -82.7290 61° Northeast 490 564 39,000  Level FlightAware
01:57PM 34.0085 -82.6884 61° Northeast 490 564 39,000  Level FlightAware ADS-B
01:58PM 34.0790 -82.5350 61° Northeast 491 565 39,000  Level FlightAware
01:59PM 34.1300 -82.4230 61° Northeast 493 567 39,000  Level FlightAware
02:00PM 34.1720 -82.3300 61° Northeast 494 568 39,000  Level FlightAware
02:00PM 34.2140 -82.2380 61° Northeast 497 572 39,000  Level FlightAware
02:01PM 34.2630 -82.1320 61° Northeast 497 572 39,000  Level FlightAware
02:02PM 34.3120 -82.0330 59° Northeast 497 572 39,000  Level FlightAware
02:02PM 34.3600 -81.9390 58° Northeast 494 568 39,000  Level FlightAware
02:03PM 34.4130 -81.8330 59° Northeast 489 563 39,000  Level FlightAware
02:04PM 34.4590 -81.7410 59° Northeast 488 562 39,000  Level FlightAware
02:04PM 34.0700 -82.5540 240° Southwest 488 562 39,000  Level FlightAware
02:05PM 34.5550 -81.5470 59° Northeast 489 563 39,000  Level FlightAware
02:06PM 34.6090 -81.4390 59° Northeast 491 565 39,000  Level FlightAware
02:07PM 34.6700 -81.3150 59° Northeast 489 563 39,000  Level FlightAware
02:07PM 34.7200 -81.2140 59° Northeast 490 564 39,000  Level FlightAware
02:08PM 34.7720 -81.1080 59° Northeast 486 559 39,000  Level FlightAware
02:09PM 34.8080 -81.0330 60° Northeast 486 559 39,000  Level FlightAware
02:10PM 34.8600 -80.9260 59° Northeast 485 558 39,000  Level FlightAware
02:10PM 34.9150 -80.8150 59° Northeast 480 552 39,000  Level FlightAware
02:11PM 34.9590 -80.7220 60° Northeast 475 547 39,000  Level FlightAware
02:12PM 34.9940 -80.6500 59° Northeast 471 542 39,000  Level FlightAware
02:12PM 35.0440 -80.5480 59° Northeast 469 540 39,000  Level FlightAware
02:13PM 35.0880 -80.4570 59° Northeast 467 537 39,000  Level FlightAware
02:14PM 35.1450 -80.3380 60° Northeast 466 536 39,000  Level FlightAware
02:15PM 35.2030 -80.2180 59° Northeast 465 535 39,000  Level FlightAware
02:15PM 35.2380 -80.1450 60° Northeast 466 536 39,000  Level FlightAware
02:16PM 35.2850 -80.0490 59° Northeast 466 536 39,000  Level FlightAware
02:17PM 35.3220 -79.9720 59° Northeast 466 536 39,000  Level FlightAware
02:17PM 35.3600 -79.8950 59° Northeast 466 536 39,000  Level FlightAware
02:18PM 35.3980 -79.8180 59° Northeast 466 536 39,000  Level FlightAware
02:19PM 35.4360 -79.7410 59° Northeast 466 536 39,000  Level FlightAware
02:20PM 35.4830 -79.6440 59° Northeast 466 536 39,000  Level FlightAware
02:20PM 35.5210 -79.5670 59° Northeast 466 536 39,000  Level FlightAware
02:21PM 35.5580 -79.4900 59° Northeast 466 536 39,000  Level FlightAware
02:21PM 35.1770 -80.2710 239° Southwest 39,000  Level FlightAware
02:25PM 35.6850 -78.7430 67° East 444 511 39,000  Level FlightAware
02:26PM 35.7130 -78.6450 71° East 445 512 39,000  Level FlightAware
02:26PM 35.7440 -78.5350 71° East 446 513 39,000  Level FlightAware
02:27PM 35.7720 -78.4370 71° East 449 517 39,000  Level FlightAware
02:28PM 35.7980 -78.3420 71° East 450 518 39,000  Level FlightAware
02:28PM 35.8290 -78.2330 71° East 452 520 39,000  Level FlightAware
02:29PM 35.8570 -78.1350 71° East 453 521 39,000  Level FlightAware
02:30PM 35.8880 -78.0220 71° East 455 524 39,000  Level FlightAware
02:31PM 35.9150 -77.9260 71° East 456 525 39,000  Level FlightAware
02:31PM 35.9450 -77.8170 71° East 458 527 39,000  Level FlightAware
02:32PM 35.9760 -77.7190 69° East 462 532 39,000  Level FlightAware
02:33PM 36.0230 -77.6290 57° Northeast 462 532 39,000  Level FlightAware
02:33PM 36.0820 -77.5340 52° Northeast 461 531 39,000  Level FlightAware
02:34PM 36.1460 -77.4320 52° Northeast 458 527 39,000  Level FlightAware
02:35PM 36.2010 -77.3420 53° Northeast 456 525 39,000  Level FlightAware
02:36PM 36.2510 -77.2610 53° Northeast 456 525 39,000  Level FlightAware
02:37PM 36.3480 -77.1010 53° Northeast 453 521 39,000  Level FlightAware
02:37PM 36.3920 -77.0290 53° Northeast 452 520 39,000  Level FlightAware
02:38PM 36.4430 -76.9490 52° Northeast 452 520 39,000  Level FlightAware
02:39PM 36.5020 -76.8490 54° Northeast 39,000  Level FlightAware
02:40PM 36.5510 -76.7690 53° Northeast 443 510 39,000  Level FlightAware
02:41PM 36.6180 -76.6570 53° Northeast 443 510 39,000  Level FlightAware
02:41PM 36.6600 -76.5870 53° Northeast 443 510 39,000  Level FlightAware
02:42PM 36.7020 -76.5180 53° Northeast 443 510 39,000  Level FlightAware
02:43PM 36.7550 -76.4310 53° Northeast 443 510 39,000  Level FlightAware
02:43PM 36.8950 -76.3970 11° North 39,000  Level FlightAware
02:44PM 37.0091 -76.3062 32° Northeast 437 503 39,000  Level FlightAware ADS-B
02:45PM 37.0619 -76.2645 32° Northeast 437 503 39,000  Level FlightAware ADS-B
02:45PM 37.1142 -76.2230 32° Northeast 437 503 39,000  Level FlightAware ADS-B
02:46PM 37.1656 -76.1822 32° Northeast 437 503 39,000  Level FlightAware ADS-B
02:47PM 37.2274 -76.1331 32° Northeast 438 504 39,000  Level FlightAware ADS-B
02:47PM 37.2834 -76.0884 32° Northeast 439 505 39,000  Level FlightAware ADS-B
02:48PM 37.3438 -76.0403 32° Northeast 440 506 39,000  Level FlightAware ADS-B
02:48PM 37.4027 -75.9932 32° Northeast 440 506 39,000  Level FlightAware ADS-B
02:49PM 37.4660 -75.9430 32° Northeast 440 506 39,000  Level FlightAware
02:50PM 37.5310 -75.8900 33° Northeast 439 505 39,000  Level FlightAware
02:50PM 37.5980 -75.8360 33° Northeast 436 502 39,000  Level FlightAware
02:51PM 37.6640 -75.7829 32° Northeast 435 501 39,000  Level FlightAware ADS-B
02:51PM 37.7179 -75.7393 33° Northeast 435 501 39,000  Level FlightAware ADS-B
02:52PM 37.7610 -75.7050 32° Northeast 434 499 39,000  Level FlightAware
02:52PM 37.8023 -75.6710 33° Northeast 435 501 39,000  Level FlightAware ADS-B
02:53PM 37.8953 -75.5956 33° Northeast 434 499 39,000  Level FlightAware ADS-B
02:54PM 37.9713 -75.5338 33° Northeast 429 494 39,000  Level FlightAware ADS-B
02:54PM 38.0250 -75.4899 33° Northeast 428 493 39,000  Level FlightAware ADS-B
02:55PM 38.0717 -75.4545 31° Northeast 426 490 39,000  Level FlightAware ADS-B
02:55PM 38.1304 -75.4175 26° Northeast 424 488 39,000  Level FlightAware ADS-B
02:56PM 38.1950 -75.3770 26° Northeast 422 486 39,000  Level FlightAware
02:56PM 38.2307 -75.3541 27° Northeast 422 486 39,000  Level FlightAware ADS-B
02:57PM 38.2859 -75.3192 26° Northeast 421 484 39,000  Level FlightAware ADS-B
02:57PM 38.3421 -75.2836 26° Northeast 421 484 39,000 -720 Level FlightAware ADS-B
02:58PM 38.3942 -75.2503 27° Northeast 420 483 38,300 -1,860 Descending FlightAware ADS-B
02:58PM 38.4498 -75.2151 26° Northeast 423 487 37,100 -1,200 Descending FlightAware ADS-B
02:59PM 38.5109 -75.1762 26° Northeast 423 487 37,000 -120 Descending FlightAware ADS-B
03:00PM 38.5704 -75.1384 26° Northeast 421 484 37,000  Level FlightAware ADS-B
03:00PM 38.6285 -75.1014 26° Northeast 422 486 37,000  Level FlightAware ADS-B
03:01PM 38.7181 -75.0438 27° Northeast 422 486 37,000  Level FlightAware ADS-B
03:02PM 38.7731 -75.0084 27° Northeast 423 487 37,000 -1,080 Level FlightAware ADS-B
03:02PM 38.8271 -74.9736 27° Northeast 426 490 35,900 -2,760 Descending FlightAware ADS-B
03:03PM 38.8822 -74.9381 27° Northeast 435 501 34,200 -3,060 Descending FlightAware ADS-B
03:03PM 38.9368 -74.9028 27° Northeast 435 501 32,800 -2,700 Descending FlightAware ADS-B
03:04PM 38.9906 -74.8679 27° Northeast 432 497 31,500 -1,860 Descending FlightAware ADS-B
03:04PM 39.0512 -74.8290 26° Northeast 418 481 30,800 -1,560 Descending FlightAware ADS-B
03:04PM 39.0787 -74.8104 28° Northeast 412 474 30,200 -2,160 Descending FlightAware ADS-B
03:05PM 39.0930 -74.7991 32° Northeast 411 473 29,900 -2,160 Descending FlightAware ADS-B
03:05PM 39.1062 -74.7874 35° Northeast 410 472 29,600 -2,100 Descending FlightAware ADS-B
03:05PM 39.1538 -74.7375 39° Northeast 407 468 28,500 -2,040 Descending FlightAware ADS-B
03:06PM 39.1971 -74.6910 40° Northeast 399 459 27,500 -2,100 Descending FlightAware ADS-B
03:06PM 39.2390 -74.6456 40° Northeast 392 451 26,400 -2,100 Descending FlightAware ADS-B
03:07PM 39.2812 -74.5999 40° Northeast 383 441 25,400 -1,980 Descending FlightAware ADS-B
03:07PM 39.3220 -74.5554 40° Northeast 376 433 24,400 -1,920 Descending FlightAware ADS-B
03:08PM 39.3623 -74.5115 40° Northeast 367 422 23,500 -1,920 Descending FlightAware ADS-B
03:08PM 39.4012 -74.4691 40° Northeast 359 413 22,500 -1,920 Descending FlightAware ADS-B
03:09PM 39.4456 -74.4206 40° Northeast 352 405 21,400 -1,860 Descending FlightAware ADS-B
03:09PM 39.4855 -74.3772 40° Northeast 339 390 20,400 -1,800 Descending FlightAware ADS-B
03:10PM 39.5216 -74.3378 40° Northeast 332 382 19,500 -1,800 Descending FlightAware ADS-B
03:10PM 39.5573 -74.2987 40° Northeast 326 375 18,600 -1,500 Descending FlightAware ADS-B
03:11PM 39.5915 -74.2609 40° Northeast 325 374 18,000 -540 Descending FlightAware ADS-B
03:12PM 39.6379 -74.2100 40° Northeast 311 358 18,000  Level FlightAware ADS-B
03:12PM 39.6721 -74.1724 40° Northeast 307 353 18,000 -420 Level FlightAware ADS-B
03:13PM 39.7051 -74.1362 40° Northeast 288 331 17,600 -1,140 Descending FlightAware ADS-B
03:13PM 39.7372 -74.1007 40° Northeast 284 327 16,800 -1,620 Descending FlightAware ADS-B
03:14PM 39.7693 -74.0653 40° Northeast 286 329 15,900 -1,560 Descending FlightAware ADS-B
03:14PM 39.8030 -74.0281 40° Northeast 282 325 15,100 -1,440 Descending FlightAware ADS-B
03:15PM 39.8333 -73.9949 40° Northeast 281 323 14,400 -1,440 Descending FlightAware ADS-B
03:15PM 39.8451 -73.9841 35° Northeast 280 322 14,100 -1,620 Descending FlightAware ADS-B
03:16PM 39.8844 -73.9556 29° Northeast 280 322 13,200 -1,500 Descending FlightAware ADS-B
03:16PM 39.9185 -73.9312 29° Northeast 276 318 12,500 -1,200 Descending FlightAware ADS-B
03:17PM 39.9590 -73.9023 29° Northeast 263 303 11,900 -1,320 Descending FlightAware ADS-B
03:17PM 39.9946 -73.8768 29° Northeast 260 299 11,000 -1,380 Descending FlightAware ADS-B
03:18PM 40.0191 -73.8597 28° Northeast 253 291 10,600 -600 Descending FlightAware ADS-B
03:18PM 40.0282 -73.8560 17° North 247 284 10,700 360 Climbing FlightAware ADS-B
03:18PM 40.0365 -73.8555 North 247 284 10,700 -360 Level FlightAware ADS-B
03:18PM 40.0479 -73.8594 345° North 247 284 10,600 -420 Descending FlightAware ADS-B
03:18PM 40.0532 -73.8630 333° Northwest 249 287 10,600 540 Level FlightAware ADS-B
03:18PM 40.0585 -73.8683 323° Northwest 252 290 10,700 120 Climbing FlightAware ADS-B
03:19PM 40.0692 -73.9154 287° West 262 302 10,700  Level FlightAware ADS-B
03:19PM 40.0616 -73.9344 242° Southwest 269 310 10,700 -240 Level FlightAware ADS-B
03:19PM 40.0424 -73.9511 214° Southwest 262 302 10,600  Descending FlightAware ADS-B
03:20PM 40.0096 -73.9726 207° Southwest 262 302 10,700 60 Climbing FlightAware ADS-B
03:20PM 39.9760 -73.9952 207° Southwest 261 300 10,700  Level FlightAware ADS-B
03:21PM 39.9415 -74.0183 207° Southwest 263 303 10,700  Level FlightAware ADS-B
03:21PM 39.9076 -74.0406 207° Southwest 263 303 10,700  Level FlightAware ADS-B
03:22PM 39.8843 -74.0498 197° South 256 295 10,700  Level FlightAware ADS-B
03:22PM 39.8530 -74.0260 150° Southeast 234 269 10,700  Level FlightAware
03:23PM 39.8490 -74.0080 106° East 229 264 10,700  Level FlightAware
03:23PM 39.8524 -73.9816 80° East 229 264 10,700 -120 Level FlightAware ADS-B
03:24PM 39.8837 -73.9500 38° Northeast 232 267 10,600  Descending FlightAware ADS-B
03:24PM 39.9137 -73.9300 27° Northeast 232 267 10,700 60 Climbing FlightAware ADS-B
03:25PM 39.9451 -73.9090 27° Northeast 232 267 10,700  Level FlightAware ADS-B
03:25PM 39.9741 -73.8898 27° Northeast 233 268 10,700  Level FlightAware ADS-B
03:26PM 40.0037 -73.8701 27° Northeast 232 267 10,700  Level FlightAware ADS-B
03:26PM 40.0242 -73.8575 25° Northeast 233 268 10,700  Level FlightAware ADS-B
03:26PM 40.0307 -73.8558 11° North 235 270 10,700  Level FlightAware ADS-B
03:26PM 40.0385 -73.8558 360° North 238 274 10,700  Level FlightAware ADS-B
03:26PM 40.0479 -73.8586 347° North 242 278 10,700  Level FlightAware ADS-B
03:26PM 40.0520 -73.8611 335° Northwest 245 282 10,700  Level FlightAware ADS-B
03:27PM 40.0720 -73.9060 300° West 265 305 10,700  Level FlightAware
03:27PM 40.0683 -73.9269 257° West 269 310 10,700  Level FlightAware ADS-B
03:27PM 40.0594 -73.9418 232° Southwest 267 307 10,700  Level FlightAware ADS-B
03:28PM 40.0523 -73.9483 215° Southwest 264 304 10,700 -300 Level FlightAware ADS-B
03:28PM 40.0368 -73.9581 206° Southwest 259 298 10,600  Descending FlightAware ADS-B
03:28PM 40.0037 -73.9802 207° Southwest 262 302 10,700 60 Climbing FlightAware ADS-B
03:29PM 39.9703 -74.0027 207° Southwest 261 300 10,700  Level FlightAware ADS-B
03:29PM 39.9371 -74.0249 207° Southwest 261 300 10,700  Level FlightAware ADS-B
03:30PM 39.9044 -74.0463 207° Southwest 261 300 10,700  Level FlightAware ADS-B
03:30PM 39.8914 -74.0524 200° South 259 298 10,700  Level FlightAware ADS-B
03:30PM 39.8814 -74.0526 181° South 254 292 10,700  Level FlightAware ADS-B
03:30PM 39.8694 -74.0480 164° South 247 284 10,700  Level FlightAware ADS-B
03:31PM 39.8564 -74.0344 141° Southeast 239 275 10,700  Level FlightAware ADS-B
03:31PM 39.8519 -74.0252 123° Southeast 234 269 10,700  Level FlightAware ADS-B
03:31PM 39.8499 -74.0186 112° Southeast 232 267 10,700  Level FlightAware ADS-B
03:32PM 39.8610 -73.9670 74° East 229 264 10,700  Level FlightAware
03:32PM 39.8730 -73.9570 33° Northeast 231 266 10,700  Level FlightAware
03:32PM 39.8818 -73.9512 27° Northeast 230 265 10,700  Level FlightAware ADS-B
03:32PM 39.8857 -73.9486 27° Northeast 231 266 10,700  Level FlightAware ADS-B
03:33PM 39.9192 -73.9263 27° Northeast 231 266 10,700  Level FlightAware ADS-B
03:33PM 39.9490 -73.9066 27° Northeast 231 266 10,700  Level FlightAware ADS-B
03:34PM 39.9788 -73.8869 27° Northeast 233 268 10,700  Level FlightAware ADS-B
03:34PM 40.0087 -73.8670 27° Northeast 233 268 10,700  Level FlightAware ADS-B
03:34PM 40.0196 -73.8585 31° Northeast 227 261 10,700  Level FlightAware ADS-B
03:35PM 40.0442 -73.8263 45° Northeast 231 266 10,700 -480 Level FlightAware ADS-B
03:35PM 40.0675 -73.7956 45° Northeast 231 266 10,200 -1,080 Descending FlightAware ADS-B
03:36PM 40.0793 -73.7798 46° Northeast 229 264 9,900 -1,080 Descending FlightAware ADS-B
03:36PM 40.1030 -73.7480 46° Northeast 226 260 9,300 -1,020 Descending FlightAware
03:37PM 40.1178 -73.7282 46° Northeast 225 259 9,000 -1,140 Descending FlightAware ADS-B
03:37PM 40.1263 -73.7133 53° Northeast 223 257 8,700 -1,080 Descending FlightAware ADS-B
03:37PM 40.1444 -73.6776 56° Northeast 219 252 8,200 -1,080 Descending FlightAware ADS-B
03:38PM 40.1690 -73.6314 55° Northeast 218 251 7,400 -1,020 Descending FlightAware ADS-B
03:38PM 40.1789 -73.6247 27° Northeast 217 250 7,300 -1,020 Descending FlightAware ADS-B
03:38PM 40.1917 -73.6239 North 220 253 7,000 -1,200 Descending FlightAware ADS-B
03:39PM 40.2001 -73.6278 340° North 226 260 6,900 -1,200 Descending FlightAware ADS-B
03:39PM 40.2098 -73.6381 321° Northwest 234 269 6,600 -1,200 Descending FlightAware ADS-B
03:39PM 40.2174 -73.6622 292° West 248 285 6,300 -1,080 Descending FlightAware ADS-B
03:39PM 40.2166 -73.6776 266° West 252 290 6,100 -1,320 Descending FlightAware ADS-B
03:39PM 40.2154 -73.6829 253° West 254 292 6,000 -1,320 Descending FlightAware ADS-B
03:39PM 40.2100 -73.6968 243° Southwest 256 295 5,800 -1,320 Descending FlightAware ADS-B
03:40PM 40.1960 -73.7254 237° Southwest 257 296 5,300 -1,140 Descending FlightAware ADS-B
03:40PM 40.1831 -73.7521 238° Southwest 254 292 5,000 -960 Descending FlightAware ADS-B
03:41PM 40.1773 -73.7869 258° West 244 281 4,600 -1,080 Descending FlightAware ADS-B
03:41PM 40.1785 -73.7923 286° West 240 276 4,500 -1,500 Descending FlightAware ADS-B
03:41PM 40.1799 -73.7979 288° West 239 275 4,400 -900 Descending FlightAware ADS-B
03:41PM 40.1892 -73.8306 290° West 234 269 4,100 -840 Descending FlightAware ADS-B
03:41PM 40.1962 -73.8557 290° West 229 264 3,800 -840 Descending FlightAware ADS-B
03:42PM 40.2020 -73.8766 290° West 230 265 3,600 -300 Descending FlightAware ADS-B
03:42PM 40.2203 -73.9063 309° West 216 249 3,600 120 Level FlightAware ADS-B
03:42PM 40.2320 -73.9191 320° Northwest 215 247 3,700 120 Climbing FlightAware ADS-B
03:43PM 40.2542 -73.9430 321° Northwest 215 247 3,700 -420 Level FlightAware ADS-B
03:43PM 40.2667 -73.9562 321° Northwest 216 249 3,400 -1,260 Descending FlightAware ADS-B
03:43PM 40.2802 -73.9705 321° Northwest 218 251 3,000 -1,200 Descending FlightAware ADS-B
03:44PM 40.2910 -73.9816 322° Northwest 218 251 2,800 -900 Descending FlightAware ADS-B
03:44PM 40.2972 -73.9859 332° Northwest 214 246 2,700 -480 Descending FlightAware ADS-B
03:44PM 40.3039 -73.9888 342° North 212 244 2,700  Level FlightAware ADS-B
03:44PM 40.3196 -73.9949 343° North 202 232 2,700 -180 Level FlightAware ADS-B
03:45PM 40.3360 -74.0014 343° North 189 217 2,600  Descending FlightAware ADS-B
03:45PM 40.3493 -74.0067 343° North 184 212 2,700  Climbing FlightAware ADS-B
03:45PM 40.3635 -74.0122 344° North 183 211 2,600  Descending FlightAware ADS-B
03:45PM 40.3691 -74.0139 347° North 181 208 2,700 420 Climbing FlightAware ADS-B
03:45PM 40.3749 -74.0148 353° North 181 208 2,700 -300 Level FlightAware ADS-B
03:46PM 40.3884 -74.0166 354° North 181 208 2,600 -180 Descending FlightAware ADS-B
03:46PM 40.4038 -74.0186 354° North 175 201 2,600 120 Level FlightAware ADS-B
03:46PM 40.4275 -74.0221 354° North 176 203 2,700 60 Climbing FlightAware ADS-B
03:47PM 40.4474 -74.0246 355° North 176 203 2,700 -180 Level FlightAware ADS-B
03:47PM 40.4632 -74.0170 20° North 168 193 2,600  Descending FlightAware ADS-B
03:48PM 40.4890 -73.9960 32° Northeast 168 193 2,700 60 Climbing FlightAware
03:48PM 40.5090 -73.9790 33° Northeast 168 193 2,700 -120 Level FlightAware
03:49PM 40.5260 -73.9650 32° Northeast 168 193 2,600 -480 Descending FlightAware
03:49PM 40.5460 -73.9490 31° Northeast 174 200 2,300 -660 Descending FlightAware
03:50PM 40.5640 -73.9340 32° Northeast 177 204 2,000 -780 Descending FlightAware
03:50PM 40.5850 -73.9170 32° Northeast 178 205 1,600 -780 Descending FlightAware
03:51PM 40.6020 -73.9030 32° Northeast 178 205 1,300 -660 Descending FlightAware
03:51PM 40.6240 -73.8860 30° Northeast 169 194 1,000 -840 Descending FlightAware
03:52PM 40.6430 -73.8710 31° Northeast 159 183 500 -720 Descending FlightAware
03:52PM 40.6520 -73.8640 31° Northeast 154 177 500  Level FlightAware
03:52PM 40.6640 -73.8490 43° Northeast 139 160 500 -120 Level FlightAware
03:53PM 40.6670 -73.8230 81° East 140 161 400 -240 Descending FlightAware
03:53PM 40.6580 -73.7920 111° Southeast 145 167 -600 Descending FlightAware
03:54PM 40.6580 -73.7900 90° East 146 168  Level FlightAware